createdAt,value
2022-08-10T00:01:54.128Z,7.38
2022-08-10T00:04:23.046Z,6.88
2022-08-10T00:06:55.241Z,8.18
2022-08-10T00:09:23.434Z,7.25
2022-08-10T00:11:50.897Z,8.23
2022-08-10T00:14:18.545Z,10.95
2022-08-10T00:16:45.577Z,3.83
2022-08-10T00:19:12.656Z,5.85
2022-08-10T00:21:43.653Z,8.60
2022-08-10T00:24:10.684Z,4.03
2022-08-10T00:27:51.631Z,7.15
2022-08-10T00:29:24.925Z,5.20
2022-08-10T00:31:57.910Z,4.18
2022-08-10T00:34:30.843Z,5.97
2022-08-10T00:36:58.664Z,8.10
2022-08-10T00:39:26.918Z,8.18
2022-08-10T00:42:02.321Z,7.78
2022-08-10T00:44:37.215Z,3.92
2022-08-10T00:47:05.193Z,5.47
2022-08-10T00:49:32.204Z,5.70
2022-08-10T00:52:00.170Z,6.82
2022-08-10T00:54:27.943Z,4.07
2022-08-10T00:57:15.727Z,8.27
2022-08-10T00:59:57.609Z,4.82
2022-08-10T01:02:25.661Z,5.35
2022-08-10T01:05:00.267Z,4.80
2022-08-10T01:08:02.301Z,7.15
2022-08-10T01:10:46.420Z,4.55
2022-08-10T01:13:24.173Z,8.38
2022-08-10T01:15:59.228Z,5.22
2022-08-10T01:18:46.726Z,3.63
2022-08-10T01:21:32.734Z,8.13
2022-08-10T01:24:05.770Z,4.28
2022-08-10T01:26:41.699Z,3.97
2022-08-10T01:29:30.578Z,4.45
2022-08-10T01:32:07.154Z,3.70
2022-08-10T01:34:56.753Z,8.30
2022-08-10T01:37:30.205Z,2.72
2022-08-10T01:42:32.960Z,8.30
2022-08-10T01:45:04.870Z,3.22
2022-08-10T01:47:54.607Z,4.70
2022-08-10T01:50:32.385Z,6.00
2022-08-10T01:53:09.367Z,3.80
2022-08-10T01:55:38.147Z,7.53
2022-08-10T01:58:07.209Z,3.40
2022-08-10T02:00:37.670Z,12.20
2022-08-10T02:03:07.107Z,4.88
2022-08-10T02:05:39.065Z,9.48
2022-08-10T02:08:11.534Z,3.78
2022-08-10T02:10:42.534Z,6.45
2022-08-10T02:13:10.784Z,3.35
2022-08-10T02:16:02.323Z,7.15
2022-08-10T02:18:30.851Z,6.18
2022-08-10T02:21:02.911Z,5.70
2022-08-10T02:23:32.214Z,3.95
2022-08-10T02:26:01.545Z,5.68
2022-08-10T02:28:33.238Z,4.40
2022-08-10T02:31:11.746Z,4.22
2022-08-10T02:33:56.659Z,4.75
2022-08-10T02:36:29.312Z,4.28
2022-08-10T02:39:01.875Z,7.63
2022-08-10T02:45:02.364Z,8.50
2022-08-10T02:45:19.469Z,5.15
2022-08-10T02:47:51.086Z,11.23
2022-08-10T02:50:28.150Z,6.75
2022-08-10T02:53:54.355Z,10.13
2022-08-10T02:56:28.447Z,7.05
2022-08-10T02:59:10.704Z,8.73
2022-08-10T03:01:46.378Z,8.05
2022-08-10T03:04:57.399Z,6.72
2022-08-10T03:07:16.828Z,11.25
2022-08-10T03:09:47.448Z,10.68
2022-08-10T03:12:38.390Z,13.93
2022-08-10T03:15:06.691Z,19.20
2022-08-10T03:17:34.402Z,11.68
2022-08-10T03:20:35.902Z,11.73
2022-08-10T03:22:51.163Z,9.07
2022-08-10T03:25:21.077Z,7.53
2022-08-10T03:27:49.643Z,9.23
2022-08-10T03:30:28.119Z,12.10
2022-08-10T03:33:01.435Z,10.02
2022-08-10T03:35:29.594Z,6.78
2022-08-10T03:37:59.525Z,9.85
2022-08-10T03:40:46.056Z,8.68
2022-08-10T03:43:18.553Z,9.63
2022-08-10T03:45:55.965Z,11.33
2022-08-10T03:48:44.592Z,7.68
2022-08-10T03:51:14.661Z,6.97
2022-08-10T03:54:05.814Z,8.45
2022-08-10T03:56:32.422Z,8.93
2022-08-10T03:59:01.174Z,6.25
2022-08-10T04:02:45.178Z,10.85
2022-08-10T04:04:23.677Z,7.65
2022-08-10T04:06:57.960Z,8.90
2022-08-10T04:09:53.491Z,9.85
2022-08-10T04:12:21.786Z,11.70
2022-08-10T04:14:50.790Z,12.52
2022-08-10T04:18:02.988Z,10.05
2022-08-10T04:20:29.902Z,10.32
2022-08-10T04:23:07.316Z,17.10
2022-08-10T04:25:35.282Z,8.05
2022-08-10T04:28:03.931Z,7.05
2022-08-10T04:30:32.366Z,8.63
2022-08-10T04:33:02.105Z,12.38
2022-08-10T04:35:30.250Z,12.90
2022-08-10T04:37:59.110Z,11.15
2022-08-10T04:40:30.484Z,10.27
2022-08-10T04:43:12.391Z,12.43
2022-08-10T04:45:49.123Z,11.50
2022-08-10T04:48:42.891Z,13.73
2022-08-10T04:51:17.723Z,50.33
2022-08-10T04:54:05.071Z,74.28
2022-08-10T04:56:36.441Z,79.38
2022-08-10T04:59:05.105Z,68.93
2022-08-10T05:02:28.382Z,57.20
2022-08-10T05:04:35.404Z,57.65
2022-08-10T05:07:10.455Z,60.53
2022-08-10T05:10:02.032Z,53.97
2022-08-10T05:12:27.690Z,42.80
2022-08-10T05:14:55.123Z,34.40
2022-08-10T05:17:22.895Z,28.55
2022-08-10T05:20:03.454Z,31.48
2022-08-10T05:22:35.446Z,27.20
2022-08-10T05:25:03.900Z,26.20
2022-08-10T05:27:31.026Z,24.45
2022-08-10T05:30:02.329Z,26.30
2022-08-10T05:32:56.435Z,33.65
2022-08-10T05:35:22.042Z,46.65
2022-08-10T05:38:11.543Z,43.10
2022-08-10T05:40:40.897Z,44.13
2022-08-10T05:43:10.023Z,39.28
2022-08-10T05:46:17.165Z,33.58
2022-08-10T05:48:56.457Z,33.45
2022-08-10T05:51:12.701Z,29.02
2022-08-10T05:54:02.031Z,27.98
2022-08-10T05:56:27.062Z,28.75
2022-08-10T05:59:16.013Z,33.17
2022-08-10T06:02:33.231Z,28.75
2022-08-10T06:05:03.589Z,24.17
2022-08-10T06:07:31.205Z,23.05
2022-08-10T06:10:00.745Z,27.45
2022-08-10T06:12:30.501Z,31.65
2022-08-10T06:15:05.929Z,30.45
2022-08-10T06:17:38.274Z,31.20
2022-08-10T06:20:05.987Z,24.17
2022-08-10T06:22:33.829Z,22.73
2022-08-10T06:25:37.815Z,22.40
2022-08-10T06:27:50.666Z,16.30
2022-08-10T06:30:20.971Z,21.33
2022-08-10T06:32:51.511Z,20.92
2022-08-10T06:35:19.986Z,17.98
2022-08-10T06:37:50.792Z,13.88
2022-08-10T06:40:20.137Z,17.97
2022-08-10T06:42:49.982Z,17.48
2022-08-10T06:45:23.228Z,14.32
2022-08-10T06:48:02.230Z,17.48
2022-08-10T06:50:56.088Z,13.02
2022-08-10T06:53:53.894Z,14.35
2022-08-10T06:56:37.650Z,12.38
2022-08-10T06:59:21.845Z,14.98
2022-08-10T07:02:24.407Z,10.00
2022-08-10T07:05:06.344Z,13.40
2022-08-10T07:07:38.889Z,17.17
2022-08-10T07:10:08.027Z,20.08
2022-08-10T07:12:37.962Z,15.73
2022-08-10T07:15:08.517Z,20.48
2022-08-10T07:17:39.506Z,14.43
2022-08-10T07:20:12.038Z,16.02
2022-08-10T07:23:08.102Z,21.00
2022-08-10T07:25:29.484Z,12.70
2022-08-10T07:28:01.777Z,15.60
2022-08-10T07:33:01.154Z,17.05
2022-08-10T07:35:34.645Z,11.32
2022-08-10T07:38:09.045Z,9.07
2022-08-10T07:40:36.916Z,7.30
2022-08-10T07:43:05.277Z,12.65
2022-08-10T07:45:35.280Z,9.57
2022-08-10T07:48:08.118Z,4.85
2022-08-10T07:50:38.799Z,4.43
2022-08-10T07:53:10.062Z,5.95
2022-08-10T07:56:07.606Z,4.63
2022-08-10T07:58:34.484Z,9.55
2022-08-10T08:01:01.706Z,9.23
2022-08-10T08:03:30.766Z,7.75
2022-08-10T08:06:03.379Z,8.73
2022-08-10T08:08:38.668Z,10.50
2022-08-10T08:11:06.794Z,4.88
2022-08-10T08:13:34.904Z,13.43
2022-08-10T08:16:20.403Z,11.10
2022-08-10T08:19:16.513Z,3.15
2022-08-10T08:24:08.088Z,6.30
2022-08-10T08:24:31.005Z,7.13
2022-08-10T08:27:02.822Z,7.93
2022-08-10T08:29:35.057Z,2.90
2022-08-10T08:32:06.372Z,4.85
2022-08-10T08:34:37.374Z,6.45
2022-08-10T08:37:07.219Z,6.20
2022-08-10T08:39:36.751Z,2.20
2022-08-10T08:42:35.340Z,7.03
2022-08-10T08:45:31.501Z,4.25
2022-08-10T08:48:12.561Z,6.18
2022-08-10T08:51:01.733Z,5.75
2022-08-10T08:54:07.675Z,2.65
2022-08-10T08:56:49.585Z,8.07
2022-08-10T08:59:39.146Z,2.40
2022-08-10T09:02:18.131Z,5.00
2022-08-10T09:05:20.763Z,3.10
2022-08-10T09:08:03.216Z,2.80
2022-08-10T09:13:13.980Z,2.10
2022-08-10T09:15:58.624Z,8.57
2022-08-10T09:19:03.587Z,3.97
2022-08-10T09:21:43.180Z,15.10
2022-08-10T09:24:35.821Z,6.28
2022-08-10T09:27:14.718Z,3.08
2022-08-10T09:29:57.109Z,11.43
2022-08-10T09:36:16.742Z,6.47
2022-08-10T09:36:28.401Z,3.60
2022-08-10T09:39:02.588Z,6.38
2022-08-10T09:41:52.036Z,5.88
2022-08-10T09:44:27.640Z,3.88
2022-08-10T09:47:59.996Z,4.47
2022-08-10T09:54:15.951Z,4.07
2022-08-10T09:57:12.005Z,11.57
2022-08-10T10:00:08.997Z,7.30
2022-08-10T10:02:45.249Z,4.45
2022-08-10T10:05:25.221Z,5.32
2022-08-10T10:08:24.252Z,3.20
2022-08-10T10:10:57.601Z,3.10
2022-08-10T10:14:03.764Z,2.42
2022-08-10T10:16:32.692Z,5.35
2022-08-10T10:19:25.028Z,3.42
2022-08-10T10:22:10.911Z,8.85
2022-08-10T10:25:19.574Z,4.68
2022-08-10T10:28:09.281Z,3.35
2022-08-10T10:30:45.816Z,3.60
2022-08-10T10:33:19.310Z,6.03
2022-08-10T10:35:54.980Z,8.27
2022-08-10T10:38:27.094Z,5.88
2022-08-10T10:41:08.566Z,2.78
2022-08-10T10:43:56.058Z,2.35
2022-08-10T10:46:57.866Z,11.50
2022-08-10T10:49:50.460Z,5.82
2022-08-10T10:52:29.219Z,5.70
2022-08-10T10:55:15.051Z,3.22
2022-08-10T10:57:58.622Z,3.15
2022-08-10T11:00:37.198Z,2.95
2022-08-10T11:03:34.046Z,2.92
2022-08-10T11:06:14.473Z,2.95
2022-08-10T11:08:47.112Z,4.50
2022-08-10T11:12:00.649Z,11.88
2022-08-10T11:14:44.358Z,3.72
2022-08-10T11:17:18.698Z,4.13
2022-08-10T11:20:04.196Z,3.10
2022-08-10T11:22:44.574Z,13.20
2022-08-10T11:25:58.791Z,5.35
2022-08-10T11:28:38.689Z,2.80
2022-08-10T11:31:35.950Z,5.07
2022-08-10T11:34:49.033Z,5.95
2022-08-10T11:37:22.497Z,3.60
2022-08-10T11:40:01.120Z,2.92
2022-08-10T11:42:43.262Z,9.00
2022-08-10T11:47:48.029Z,2.38
2022-08-10T11:50:28.380Z,3.45
2022-08-10T11:53:22.488Z,2.10
2022-08-10T11:55:57.281Z,4.38
2022-08-10T11:58:47.225Z,3.10
2022-08-10T12:01:17.582Z,5.47
2022-08-10T12:03:46.463Z,4.65
2022-08-10T12:06:39.321Z,4.60
2022-08-10T12:10:10.644Z,1.77
2022-08-10T12:11:59.170Z,3.85
2022-08-10T12:14:33.485Z,2.70
2022-08-10T12:17:08.001Z,2.83
2022-08-10T12:20:03.881Z,7.28
2022-08-10T12:22:38.655Z,2.70
2022-08-10T12:25:11.533Z,4.47
2022-08-10T12:27:48.615Z,3.22
2022-08-10T12:30:17.014Z,5.65
2022-08-10T12:33:02.670Z,5.10
2022-08-10T12:35:56.081Z,2.67
2022-08-10T12:38:40.314Z,9.20
2022-08-10T12:41:19.162Z,1.63
2022-08-10T12:44:09.522Z,2.88
2022-08-10T12:46:48.499Z,4.18
2022-08-10T12:49:36.903Z,4.53
2022-08-10T12:52:09.940Z,2.08
2022-08-10T12:54:38.057Z,5.90
2022-08-10T12:57:11.477Z,4.85
2022-08-10T12:59:43.780Z,7.32
2022-08-10T13:04:49.287Z,4.55
2022-08-10T13:08:24.258Z,5.30
2022-08-10T13:10:17.413Z,12.02
2022-08-10T13:12:48.761Z,12.18
2022-08-10T13:15:43.168Z,5.65
2022-08-10T13:18:06.584Z,1.90
2022-08-10T13:20:51.522Z,4.15
2022-08-10T13:23:25.043Z,2.03
2022-08-10T13:25:54.949Z,9.05
2022-08-10T13:28:37.424Z,1.92
2022-08-10T13:31:11.633Z,2.63
2022-08-10T13:34:38.863Z,2.65
2022-08-10T13:36:40.242Z,20.83
2022-08-10T13:39:08.746Z,6.22
2022-08-10T13:41:39.922Z,1.33
2022-08-10T13:44:09.565Z,4.03
2022-08-10T13:46:40.266Z,2.63
2022-08-10T13:49:09.541Z,3.13
2022-08-10T13:51:54.105Z,4.78
2022-08-10T13:54:29.027Z,2.58
2022-08-10T13:56:57.694Z,4.90
2022-08-10T14:00:34.904Z,5.57
2022-08-10T14:02:22.800Z,3.22
2022-08-10T14:04:50.513Z,5.32
2022-08-10T14:07:18.231Z,2.15
2022-08-10T14:09:47.658Z,1.83
2022-08-10T14:12:16.769Z,1.80
2022-08-10T14:14:52.744Z,5.13
2022-08-10T14:17:22.580Z,8.38
2022-08-10T14:19:58.841Z,3.05
2022-08-10T14:22:30.088Z,5.18
2022-08-10T14:25:05.527Z,11.23
2022-08-10T14:28:02.172Z,2.75
2022-08-10T14:30:23.194Z,2.17
2022-08-10T14:33:00.313Z,4.15
2022-08-10T14:36:21.052Z,7.68
2022-08-10T14:38:20.779Z,3.92
2022-08-10T14:40:53.078Z,8.48
2022-08-10T14:43:40.577Z,2.38
2022-08-10T14:46:11.531Z,2.28
2022-08-10T14:48:46.839Z,4.43
2022-08-10T14:51:17.873Z,1.23
2022-08-10T14:53:54.297Z,3.70
2022-08-10T14:56:27.263Z,3.40
2022-08-10T14:59:06.092Z,3.53
2022-08-10T15:02:39.136Z,4.05
2022-08-10T15:04:26.559Z,2.80
2022-08-10T15:06:57.532Z,2.90
2022-08-10T15:09:59.265Z,2.05
2022-08-10T15:12:27.201Z,3.17
2022-08-10T15:15:00.666Z,2.22
2022-08-10T15:17:39.446Z,2.67
2022-08-10T15:20:20.394Z,1.63
2022-08-10T15:22:55.651Z,2.22
2022-08-10T15:25:26.117Z,1.88
2022-08-10T15:28:06.478Z,2.03
2022-08-10T15:30:49.569Z,2.03
2022-08-10T15:34:03.568Z,3.67
2022-08-10T15:37:03.889Z,3.83
2022-08-10T15:40:24.148Z,2.35
2022-08-10T15:42:34.062Z,3.55
2022-08-10T15:45:02.050Z,1.52
2022-08-10T15:47:46.226Z,5.90
2022-08-10T15:50:19.671Z,5.00
2022-08-10T15:53:01.623Z,2.97
2022-08-10T15:55:44.362Z,1.65
2022-08-10T15:58:39.013Z,4.80
2022-08-10T16:02:14.907Z,7.63
2022-08-10T16:04:31.593Z,1.80
2022-08-10T16:07:03.806Z,2.15
2022-08-10T16:10:22.014Z,6.65
2022-08-10T16:12:34.451Z,3.30
2022-08-10T16:15:15.230Z,3.42
2022-08-10T16:17:56.155Z,2.08
2022-08-10T16:20:53.407Z,3.78
2022-08-10T16:23:30.273Z,3.25
2022-08-10T16:26:14.829Z,3.30
2022-08-10T16:28:47.798Z,4.53
2022-08-10T16:31:20.055Z,3.45
2022-08-10T16:36:28.911Z,3.22
2022-08-10T16:38:57.538Z,6.35
2022-08-10T16:42:05.314Z,6.70
2022-08-10T16:44:19.678Z,2.30
2022-08-10T16:46:48.073Z,3.38
2022-08-10T16:49:17.920Z,7.45
2022-08-10T16:51:50.581Z,5.65
2022-08-10T16:54:26.832Z,4.50
2022-08-10T16:57:03.550Z,1.67
2022-08-10T16:59:35.413Z,2.92
2022-08-10T17:02:04.306Z,2.58
2022-08-10T17:04:33.809Z,7.13
2022-08-10T17:07:07.187Z,18.65
2022-08-10T17:09:38.548Z,5.53
2022-08-10T17:12:11.229Z,4.07
2022-08-10T17:14:40.841Z,2.03
2022-08-10T17:17:20.599Z,1.27
2022-08-10T17:19:49.393Z,3.38
2022-08-10T17:22:19.565Z,17.42
2022-08-10T17:24:52.675Z,6.00
2022-08-10T17:28:05.822Z,6.57
2022-08-10T17:30:16.136Z,2.50
2022-08-10T17:33:05.492Z,2.42
2022-08-10T17:38:15.170Z,6.03
2022-08-10T17:41:12.853Z,2.45
2022-08-10T17:44:01.285Z,2.03
2022-08-10T17:46:40.231Z,3.03
2022-08-10T17:49:13.360Z,2.90
2022-08-10T17:51:42.567Z,6.35
2022-08-10T17:54:38.206Z,4.93
2022-08-10T17:57:11.070Z,5.78
2022-08-10T17:59:39.133Z,3.53
2022-08-10T18:02:13.548Z,8.00
2022-08-10T18:04:48.568Z,3.50
2022-08-10T18:07:16.886Z,3.53
2022-08-10T18:09:50.348Z,5.68
2022-08-10T18:12:32.007Z,2.45
2022-08-10T18:15:11.897Z,3.88
2022-08-10T18:17:46.221Z,2.95
2022-08-10T18:20:16.360Z,6.43
2022-08-10T18:22:50.507Z,7.68
2022-08-10T18:25:22.167Z,4.97
2022-08-10T18:28:04.352Z,9.95
2022-08-10T18:30:45.397Z,4.72
2022-08-10T18:33:14.364Z,8.05
2022-08-10T18:35:44.329Z,9.90
2022-08-10T18:38:13.243Z,6.32
2022-08-10T18:40:44.933Z,6.03
2022-08-10T18:44:05.557Z,2.83
2022-08-10T18:46:06.805Z,9.45
2022-08-10T18:48:40.610Z,4.90
2022-08-10T18:51:09.214Z,4.75
2022-08-10T18:54:04.286Z,4.78
2022-08-10T18:57:00.109Z,3.65
2022-08-10T19:00:03.957Z,4.57
2022-08-10T19:02:59.896Z,2.58
2022-08-10T19:05:33.993Z,7.28
2022-08-10T19:08:31.157Z,2.28
2022-08-10T19:11:44.004Z,5.10
2022-08-10T19:14:32.846Z,5.35
2022-08-10T19:17:25.942Z,4.22
2022-08-10T19:20:32.094Z,6.72
2022-08-10T19:23:22.999Z,4.00
2022-08-10T19:26:39.328Z,2.42
2022-08-10T19:28:52.954Z,2.72
2022-08-10T19:31:45.071Z,8.20
2022-08-10T19:34:29.236Z,2.90
2022-08-10T19:37:18.709Z,1.98
2022-08-10T19:40:09.834Z,2.15
2022-08-10T19:42:43.970Z,2.58
2022-08-10T19:45:56.076Z,7.03
2022-08-10T19:48:44.177Z,5.35
2022-08-10T19:51:16.404Z,2.97
2022-08-10T19:54:02.143Z,4.30
2022-08-10T19:56:57.912Z,17.73
2022-08-10T20:00:17.175Z,8.65
2022-08-10T20:02:21.894Z,6.45
2022-08-10T20:05:02.471Z,5.32
2022-08-10T20:07:39.734Z,6.30
2022-08-10T20:10:28.049Z,5.97
2022-08-10T20:13:02.540Z,5.97
2022-08-10T20:15:41.858Z,3.40
2022-08-10T20:18:23.207Z,15.10
2022-08-10T20:21:00.823Z,10.77
2022-08-10T20:23:35.254Z,10.38
2022-08-10T20:26:24.670Z,22.05
2022-08-10T20:29:08.935Z,19.15
2022-08-10T20:31:46.442Z,8.45
2022-08-10T20:34:19.364Z,12.05
2022-08-10T20:36:55.421Z,6.22
2022-08-10T20:39:49.751Z,10.57
2022-08-10T20:42:26.551Z,9.98
2022-08-10T20:45:04.310Z,11.15
2022-08-10T20:47:54.565Z,7.03
2022-08-10T20:50:27.941Z,7.43
2022-08-10T20:53:01.323Z,8.60
2022-08-10T20:55:52.566Z,7.90
2022-08-10T20:58:37.836Z,4.35
2022-08-10T21:01:13.014Z,8.88
2022-08-10T21:03:58.455Z,11.57
2022-08-10T21:07:28.269Z,6.97
2022-08-10T21:10:02.762Z,11.10
2022-08-10T21:12:55.371Z,8.90
2022-08-10T21:15:41.784Z,11.70
2022-08-10T21:18:33.511Z,6.70
2022-08-10T21:21:08.320Z,3.13
2022-08-10T21:23:40.033Z,7.60
2022-08-10T21:26:17.912Z,12.23
2022-08-10T21:29:19.632Z,7.63
2022-08-10T21:32:30.198Z,5.75
2022-08-10T21:35:08.543Z,8.57
2022-08-10T21:37:56.836Z,4.53
2022-08-10T21:41:18.142Z,8.45
2022-08-10T21:44:15.396Z,9.77
2022-08-10T21:47:41.692Z,5.10
2022-08-10T21:50:33.715Z,4.70
2022-08-10T21:53:44.829Z,7.80
2022-08-10T21:56:36.814Z,8.57
2022-08-10T21:59:45.995Z,10.05
2022-08-10T22:02:50.357Z,6.05
2022-08-10T22:05:44.647Z,3.60
2022-08-10T22:08:35.732Z,5.88
2022-08-10T22:11:24.977Z,5.20
2022-08-10T22:14:11.034Z,12.68
2022-08-10T22:18:00.077Z,5.03
2022-08-10T22:20:26.963Z,8.30
2022-08-10T22:23:25.022Z,6.57
2022-08-10T22:26:35.175Z,8.90
2022-08-10T22:29:42.798Z,10.48
2022-08-10T22:32:55.915Z,8.02
2022-08-10T22:36:11.101Z,5.90
2022-08-10T22:39:11.366Z,5.80
2022-08-10T22:42:21.182Z,9.23
2022-08-10T22:45:10.510Z,5.55
2022-08-10T22:47:56.202Z,5.78
2022-08-10T22:50:28.210Z,5.15
2022-08-10T22:53:04.788Z,9.07
2022-08-10T22:55:57.136Z,11.00
2022-08-10T22:58:38.923Z,4.80
2022-08-10T23:01:36.774Z,6.28
2022-08-10T23:04:11.111Z,6.53
2022-08-10T23:06:40.283Z,6.50
2022-08-10T23:09:09.847Z,7.85
2022-08-10T23:11:41.221Z,5.43
2022-08-10T23:14:11.213Z,7.13
2022-08-10T23:17:08.950Z,7.25
2022-08-10T23:19:45.304Z,8.50
2022-08-10T23:22:15.132Z,6.13
2022-08-10T23:24:45.113Z,9.38
2022-08-10T23:27:38.797Z,6.95
2022-08-10T23:30:09.681Z,7.65
2022-08-10T23:32:43.978Z,8.90
2022-08-10T23:38:01.730Z,6.55
2022-08-10T23:40:29.081Z,8.82
2022-08-10T23:42:57.398Z,6.20
2022-08-10T23:45:27.670Z,8.00
2022-08-10T23:48:01.088Z,3.88
2022-08-10T23:50:28.909Z,5.18
2022-08-10T23:53:01.077Z,9.45
2022-08-10T23:55:49.106Z,4.38
2022-08-10T23:58:31.792Z,8.60
